createdAt,value
2022-12-31T00:00:38.378Z,100137.59
2022-12-31T00:03:06.809Z,100147.47
2022-12-31T00:05:36.682Z,100151.31
2022-12-31T00:08:04.877Z,100147.72
2022-12-31T00:10:34.166Z,100140.09
2022-12-31T00:13:02.192Z,100149.16
2022-12-31T00:15:30.248Z,100152.38
2022-12-31T00:17:59.618Z,100146.53
2022-12-31T00:20:27.500Z,100158.34
2022-12-31T00:22:55.479Z,100159.06
2022-12-31T00:25:23.730Z,100169.91
2022-12-31T00:27:51.693Z,100173.38
2022-12-31T00:30:21.278Z,100171.81
2022-12-31T00:32:49.203Z,100170.03
2022-12-31T00:35:18.776Z,100173.63
2022-12-31T00:37:46.707Z,100180.66
2022-12-31T00:40:14.721Z,100182.53
2022-12-31T00:42:42.588Z,100177.56
2022-12-31T00:45:12.808Z,100173.50
2022-12-31T00:47:41.245Z,100170.63
2022-12-31T00:50:09.956Z,100172.28
2022-12-31T00:52:39.223Z,100164.66
2022-12-31T00:55:08.449Z,100161.44
2022-12-31T00:57:36.380Z,100169.19
2022-12-31T01:00:07.491Z,100178.97
2022-12-31T01:02:35.659Z,100177.31
2022-12-31T01:05:03.759Z,100191.50
2022-12-31T01:07:31.680Z,100195.28
2022-12-31T01:10:02.662Z,100200.44
2022-12-31T01:12:32.563Z,100203.66
2022-12-31T01:15:00.561Z,100209.88
2022-12-31T01:17:28.708Z,100209.78
2022-12-31T01:19:56.635Z,100216.53
2022-12-31T01:22:24.512Z,100209.50
2022-12-31T01:24:52.669Z,100212.13
2022-12-31T01:27:22.101Z,100211.91
2022-12-31T01:29:50.042Z,100216.81
2022-12-31T01:32:17.973Z,100218.00
2022-12-31T01:34:45.841Z,100229.09
2022-12-31T01:37:16.484Z,100218.00
2022-12-31T01:39:44.392Z,100217.44
2022-12-31T01:42:12.977Z,100219.19
2022-12-31T01:44:53.912Z,100225.53
2022-12-31T01:47:35.194Z,100226.72
2022-12-31T01:50:09.257Z,100228.16
2022-12-31T01:52:41.004Z,100242.34
2022-12-31T01:55:15.208Z,100234.00
2022-12-31T01:57:44.020Z,100242.84
2022-12-31T02:00:14.285Z,100238.03
2022-12-31T02:02:45.624Z,100238.53
2022-12-31T02:05:20.036Z,100231.59
2022-12-31T02:07:49.517Z,100233.84
2022-12-31T02:10:17.908Z,100248.19
2022-12-31T02:12:46.315Z,100239.69
2022-12-31T02:15:16.083Z,100242.31
2022-12-31T02:17:53.770Z,100255.56
2022-12-31T02:20:51.074Z,100257.81
2022-12-31T02:23:40.363Z,100259.31
2022-12-31T02:26:38.231Z,100253.00
2022-12-31T02:29:32.743Z,100255.47
2022-12-31T02:32:09.087Z,100250.00
2022-12-31T02:34:43.578Z,100255.72
2022-12-31T02:37:15.875Z,100249.34
2022-12-31T02:39:45.106Z,100242.63
2022-12-31T02:42:13.481Z,100241.94
2022-12-31T02:44:43.282Z,100239.91
2022-12-31T02:47:22.771Z,100230.78
2022-12-31T02:50:05.589Z,100238.25
2022-12-31T02:52:50.051Z,100240.13
2022-12-31T02:55:27.085Z,100239.59
2022-12-31T02:58:05.050Z,100236.84
2022-12-31T03:00:55.137Z,100236.75
2022-12-31T03:03:25.607Z,100239.59
2022-12-31T03:05:53.825Z,100243.91
2022-12-31T03:08:23.374Z,100237.56
2022-12-31T03:10:52.092Z,100231.81
2022-12-31T03:13:19.107Z,100228.72
2022-12-31T03:15:49.576Z,100238.78
2022-12-31T03:18:39.476Z,100239.59
2022-12-31T03:21:31.475Z,100236.84
2022-12-31T03:24:16.998Z,100232.91
2022-12-31T03:26:44.994Z,100231.91
2022-12-31T03:29:12.902Z,100229.03
2022-12-31T03:31:40.889Z,100240.28
2022-12-31T03:34:09.012Z,100219.97
2022-12-31T03:36:39.527Z,100218.75
2022-12-31T03:39:07.460Z,100228.66
2022-12-31T03:41:35.459Z,100227.94
2022-12-31T03:44:05.930Z,100228.28
2022-12-31T03:46:33.820Z,100227.06
2022-12-31T03:49:01.697Z,100225.28
2022-12-31T03:51:29.768Z,100208.31
2022-12-31T03:53:59.091Z,100202.91
2022-12-31T03:56:27.007Z,100197.81
2022-12-31T03:58:57.686Z,100194.75
2022-12-31T04:01:26.143Z,100200.00
2022-12-31T04:03:54.162Z,100189.38
2022-12-31T04:06:22.076Z,100185.91
2022-12-31T04:08:50.000Z,100198.44
2022-12-31T04:11:21.154Z,100196.00
2022-12-31T04:13:49.272Z,100195.41
2022-12-31T04:16:17.269Z,100200.69
2022-12-31T04:18:45.223Z,100197.28
2022-12-31T04:21:13.351Z,100192.75
2022-12-31T04:23:41.330Z,100197.94
2022-12-31T04:26:09.272Z,100200.50
2022-12-31T04:28:38.538Z,100193.19
2022-12-31T04:31:06.740Z,100185.81
2022-12-31T04:33:34.760Z,100184.53
2022-12-31T04:36:03.441Z,100205.38
2022-12-31T04:38:31.526Z,100208.50
2022-12-31T04:41:17.036Z,100194.97
2022-12-31T04:43:48.260Z,100200.94
2022-12-31T04:46:17.491Z,100193.94
2022-12-31T04:48:45.832Z,100189.19
2022-12-31T04:51:14.982Z,100180.84
2022-12-31T04:53:43.041Z,100186.69
2022-12-31T04:56:11.085Z,100176.03
2022-12-31T04:58:40.359Z,100168.75
2022-12-31T05:01:10.217Z,100158.66
2022-12-31T05:03:39.047Z,100151.59
2022-12-31T05:06:10.093Z,100157.44
2022-12-31T05:08:38.142Z,100161.72
2022-12-31T05:11:08.742Z,100154.50
2022-12-31T05:13:38.198Z,100152.34
2022-12-31T05:16:07.315Z,100153.31
2022-12-31T05:18:37.252Z,100154.28
2022-12-31T05:21:05.883Z,100136.56
2022-12-31T05:23:34.086Z,100149.75
2022-12-31T05:26:02.263Z,100154.84
2022-12-31T05:28:30.318Z,100152.66
2022-12-31T05:30:58.315Z,100159.06
2022-12-31T05:33:26.364Z,100154.94
2022-12-31T05:35:58.979Z,100151.16
2022-12-31T05:38:27.246Z,100167.22
2022-12-31T05:41:03.351Z,100177.03
2022-12-31T05:43:31.707Z,100182.16
2022-12-31T05:46:03.310Z,100181.13
2022-12-31T05:48:31.378Z,100160.31
2022-12-31T05:51:00.698Z,100151.53
2022-12-31T05:53:28.596Z,100139.78
2022-12-31T05:55:56.529Z,100139.53
2022-12-31T05:58:24.486Z,100143.81
2022-12-31T06:00:53.205Z,100147.81
2022-12-31T06:03:21.334Z,100143.00
2022-12-31T06:05:49.479Z,100125.28
2022-12-31T06:08:25.932Z,100122.81
2022-12-31T06:10:54.528Z,100113.22
2022-12-31T06:13:22.474Z,100115.19
2022-12-31T06:15:50.418Z,100107.72
2022-12-31T06:18:18.452Z,100109.41
2022-12-31T06:20:46.457Z,100108.78
2022-12-31T06:23:18.375Z,100106.03
2022-12-31T06:25:46.292Z,100107.56
2022-12-31T06:28:20.005Z,100108.38
2022-12-31T06:30:50.931Z,100099.13
2022-12-31T06:33:19.212Z,100098.56
2022-12-31T06:35:47.108Z,100090.41
2022-12-31T06:38:15.010Z,100086.66
2022-12-31T06:40:44.263Z,100095.28
2022-12-31T06:43:12.164Z,100086.13
2022-12-31T06:45:41.753Z,100084.88
2022-12-31T06:48:09.829Z,100081.13
2022-12-31T06:50:37.801Z,100110.84
2022-12-31T06:53:05.729Z,100096.28
2022-12-31T06:55:34.182Z,100082.41
2022-12-31T06:58:07.061Z,100078.09
2022-12-31T07:00:35.361Z,100082.25
2022-12-31T07:03:20.166Z,100078.09
2022-12-31T07:05:51.939Z,100076.69
2022-12-31T07:08:34.623Z,100092.09
2022-12-31T07:11:08.845Z,100084.81
2022-12-31T07:13:58.863Z,100072.84
2022-12-31T07:16:45.258Z,100073.84
2022-12-31T07:19:23.648Z,100074.63
2022-12-31T07:21:54.281Z,100069.25
2022-12-31T07:24:25.003Z,100070.06
2022-12-31T07:27:04.755Z,100076.75
2022-12-31T07:29:49.231Z,100078.50
2022-12-31T07:32:28.228Z,100065.00
2022-12-31T07:35:05.510Z,100067.50
2022-12-31T07:37:42.335Z,100076.94
2022-12-31T07:40:18.606Z,100085.63
2022-12-31T07:43:08.309Z,100080.66
2022-12-31T07:45:47.858Z,100079.28
2022-12-31T07:48:24.055Z,100084.00
2022-12-31T07:50:54.528Z,100075.78
2022-12-31T07:53:23.493Z,100092.25
2022-12-31T07:55:56.349Z,100097.41
2022-12-31T07:58:41.753Z,100107.22
2022-12-31T08:01:13.642Z,100106.41
2022-12-31T08:03:52.470Z,100114.34
2022-12-31T08:06:32.499Z,100106.25
2022-12-31T08:09:08.130Z,100105.59
2022-12-31T08:11:43.781Z,100111.69
2022-12-31T08:14:14.373Z,100109.28
2022-12-31T08:16:44.464Z,100097.84
2022-12-31T08:19:21.322Z,100114.03
2022-12-31T08:21:59.031Z,100107.53
2022-12-31T08:24:37.890Z,100102.06
2022-12-31T08:27:13.292Z,100100.44
2022-12-31T08:29:47.195Z,100113.25
2022-12-31T08:32:21.885Z,100101.56
2022-12-31T08:34:59.321Z,100111.09
2022-12-31T08:37:37.695Z,100094.06
2022-12-31T08:40:20.668Z,100103.53
2022-12-31T08:43:07.042Z,100123.16
2022-12-31T08:45:38.348Z,100127.75
2022-12-31T08:48:19.112Z,100105.38
2022-12-31T08:50:47.497Z,100115.72
2022-12-31T08:53:15.795Z,100117.91
2022-12-31T08:55:45.613Z,100116.31
2022-12-31T08:58:26.311Z,100132.19
2022-12-31T09:00:57.574Z,100122.59
2022-12-31T09:04:00.250Z,100126.59
2022-12-31T09:06:32.624Z,100120.16
2022-12-31T09:09:08.929Z,100123.16
2022-12-31T09:11:50.843Z,100132.53
2022-12-31T09:14:38.282Z,100121.03
2022-12-31T09:17:19.074Z,100125.69
2022-12-31T09:19:49.908Z,100123.56
2022-12-31T09:22:18.237Z,100128.72
2022-12-31T09:24:46.716Z,100134.38
2022-12-31T09:27:25.553Z,100128.63
2022-12-31T09:30:04.798Z,100113.09
2022-12-31T09:32:55.364Z,100110.47
2022-12-31T09:35:36.004Z,100117.31
2022-12-31T09:38:11.394Z,100115.97
2022-12-31T09:41:06.859Z,100111.19
2022-12-31T09:44:01.258Z,100108.25
2022-12-31T09:47:15.878Z,100128.31
2022-12-31T09:50:20.511Z,100111.72
2022-12-31T09:53:27.631Z,100102.28
2022-12-31T09:56:02.080Z,100099.50
2022-12-31T09:58:42.584Z,100092.53
2022-12-31T10:01:24.536Z,100096.03
2022-12-31T10:04:40.311Z,100107.47
2022-12-31T10:07:25.613Z,100107.94
2022-12-31T10:10:05.109Z,100098.31
2022-12-31T10:13:01.310Z,100126.41
2022-12-31T10:15:47.656Z,100112.78
2022-12-31T10:18:25.380Z,100094.53
2022-12-31T10:21:03.590Z,100113.25
2022-12-31T10:24:03.357Z,100125.84
2022-12-31T10:26:52.906Z,100113.44
2022-12-31T10:29:35.249Z,100128.19
2022-12-31T10:32:16.339Z,100135.16
2022-12-31T10:34:55.227Z,100131.66
2022-12-31T10:37:30.082Z,100157.41
2022-12-31T10:40:11.200Z,100147.94
2022-12-31T10:43:18.085Z,100150.22
2022-12-31T10:46:23.074Z,100151.25
2022-12-31T10:49:22.365Z,100162.88
2022-12-31T10:52:41.505Z,100161.53
2022-12-31T10:55:50.811Z,100169.31
2022-12-31T10:58:57.246Z,100193.38
2022-12-31T11:01:35.101Z,100182.09
2022-12-31T11:04:30.602Z,100191.09
2022-12-31T11:07:32.803Z,100199.06
2022-12-31T11:10:51.091Z,100191.25
2022-12-31T11:13:47.323Z,100195.25
2022-12-31T11:16:25.130Z,100196.56
2022-12-31T11:19:02.923Z,100185.44
2022-12-31T11:21:50.039Z,100196.56
2022-12-31T11:24:29.783Z,100188.59
2022-12-31T11:27:09.973Z,100184.94
2022-12-31T11:30:00.768Z,100182.63
2022-12-31T11:32:41.232Z,100176.97
2022-12-31T11:35:29.239Z,100183.75
2022-12-31T11:38:07.031Z,100174.97
2022-12-31T11:40:44.412Z,100170.50
2022-12-31T11:43:23.443Z,100158.53
2022-12-31T11:46:24.740Z,100153.81
2022-12-31T11:49:03.606Z,100158.16
2022-12-31T11:51:50.755Z,100157.84
2022-12-31T11:54:39.908Z,100155.47
2022-12-31T11:57:18.964Z,100154.84
2022-12-31T11:59:47.667Z,100167.94
2022-12-31T12:02:26.609Z,100165.63
2022-12-31T12:04:58.358Z,100146.00
2022-12-31T12:07:27.462Z,100168.22
2022-12-31T12:09:56.866Z,100169.72
2022-12-31T12:12:24.842Z,100164.34
2022-12-31T12:14:54.797Z,100168.66
2022-12-31T12:17:32.246Z,100161.38
2022-12-31T12:20:02.886Z,100182.59
2022-12-31T12:22:32.711Z,100168.91
2022-12-31T12:25:05.351Z,100171.56
2022-12-31T12:27:35.226Z,100175.78
2022-12-31T12:30:11.584Z,100163.47
2022-12-31T12:32:41.038Z,100168.31
2022-12-31T12:35:17.002Z,100162.00
2022-12-31T12:37:44.904Z,100171.97
2022-12-31T12:40:21.411Z,100174.28
2022-12-31T12:42:50.435Z,100164.81
2022-12-31T12:45:20.789Z,100156.34
2022-12-31T12:47:55.477Z,100164.06
2022-12-31T12:50:26.857Z,100154.34
2022-12-31T12:53:17.402Z,100157.72
2022-12-31T12:55:54.795Z,100161.50
2022-12-31T12:58:35.346Z,100162.31
2022-12-31T13:01:08.659Z,100156.19
2022-12-31T13:07:24.105Z,100147.50
2022-12-31T13:10:08.478Z,100154.66
2022-12-31T13:13:22.162Z,100164.91
2022-12-31T13:15:38.730Z,100157.44
2022-12-31T13:18:20.591Z,100166.94
2022-12-31T13:20:56.994Z,100164.91
2022-12-31T13:23:37.872Z,100188.38
2022-12-31T13:26:13.915Z,100184.97
2022-12-31T13:28:42.923Z,100173.03
2022-12-31T13:31:15.259Z,100177.69
2022-12-31T13:33:48.183Z,100188.81
2022-12-31T13:36:20.369Z,100187.91
2022-12-31T13:38:52.194Z,100183.31
2022-12-31T13:41:25.807Z,100195.78
2022-12-31T13:43:59.609Z,100185.16
2022-12-31T13:46:39.965Z,100162.69
2022-12-31T13:49:16.662Z,100183.25
2022-12-31T13:51:50.255Z,100197.28
2022-12-31T13:54:29.890Z,100222.53
2022-12-31T13:57:03.789Z,100221.03
2022-12-31T13:59:37.663Z,100228.53
2022-12-31T14:02:18.156Z,100234.34
2022-12-31T14:04:51.932Z,100246.63
2022-12-31T14:07:29.084Z,100257.69
2022-12-31T14:10:00.607Z,100252.31
2022-12-31T14:12:38.366Z,100273.78
2022-12-31T14:15:15.117Z,100289.28
2022-12-31T14:17:49.449Z,100291.78
2022-12-31T14:20:29.945Z,100285.81
2022-12-31T14:23:10.815Z,100285.31
2022-12-31T14:25:43.793Z,100293.09
2022-12-31T14:28:19.902Z,100306.59
2022-12-31T14:30:53.481Z,100306.22
2022-12-31T14:33:35.341Z,100296.75
2022-12-31T14:36:11.813Z,100294.97
2022-12-31T14:38:55.279Z,100297.63
2022-12-31T14:41:45.801Z,100312.41
2022-12-31T14:44:29.425Z,100316.72
2022-12-31T14:47:20.447Z,100325.69
2022-12-31T14:49:55.427Z,100320.50
2022-12-31T14:52:26.656Z,100317.22
2022-12-31T14:55:12.206Z,100325.34
2022-12-31T14:58:25.358Z,100332.19
2022-12-31T15:00:33.826Z,100328.06
2022-12-31T15:03:04.517Z,100332.53
2022-12-31T15:05:34.832Z,100339.84
2022-12-31T15:08:48.213Z,100332.06
2022-12-31T15:11:33.090Z,100343.69
2022-12-31T15:14:37.641Z,100344.84
2022-12-31T15:17:17.131Z,100349.50
2022-12-31T15:20:04.448Z,100337.56
2022-12-31T15:22:39.258Z,100337.84
2022-12-31T15:25:23.025Z,100346.81
2022-12-31T15:27:52.906Z,100338.69
2022-12-31T15:30:35.509Z,100337.16
2022-12-31T15:33:07.565Z,100348.81
2022-12-31T15:35:47.465Z,100346.81
2022-12-31T15:38:31.964Z,100349.44
2022-12-31T15:41:00.447Z,100351.47
2022-12-31T15:43:40.781Z,100358.59
2022-12-31T15:48:52.501Z,100354.25
2022-12-31T15:51:26.633Z,100355.41
2022-12-31T15:53:57.463Z,100350.59
2022-12-31T15:56:33.812Z,100349.78
2022-12-31T15:59:06.422Z,100344.44
2022-12-31T16:01:37.155Z,100347.78
2022-12-31T16:04:08.733Z,100354.59
2022-12-31T16:06:38.439Z,100362.56
2022-12-31T16:09:10.440Z,100359.06
2022-12-31T16:11:41.765Z,100366.69
2022-12-31T16:14:21.115Z,100371.53
2022-12-31T16:16:57.493Z,100372.34
2022-12-31T16:19:34.462Z,100376.97
2022-12-31T16:22:08.075Z,100372.31
2022-12-31T16:24:49.016Z,100375.84
2022-12-31T16:27:25.772Z,100364.84
2022-12-31T16:30:01.052Z,100371.03
2022-12-31T16:32:35.431Z,100368.84
2022-12-31T16:35:05.908Z,100378.50
2022-12-31T16:37:38.107Z,100378.34
2022-12-31T16:40:19.122Z,100376.19
2022-12-31T16:42:48.550Z,100375.69
2022-12-31T16:45:32.857Z,100386.84
2022-12-31T16:48:16.407Z,100385.00
2022-12-31T16:50:45.858Z,100376.88
2022-12-31T16:53:17.896Z,100396.19
2022-12-31T16:55:51.277Z,100373.91
2022-12-31T16:58:23.899Z,100381.75
2022-12-31T17:00:53.877Z,100382.25
2022-12-31T17:03:24.853Z,100369.44
2022-12-31T17:06:13.233Z,100375.94
2022-12-31T17:08:43.110Z,100373.41
2022-12-31T17:11:25.083Z,100390.72
2022-12-31T17:13:58.373Z,100370.63
2022-12-31T17:16:30.776Z,100367.44
2022-12-31T17:18:59.065Z,100376.94
2022-12-31T17:21:29.881Z,100383.69
2022-12-31T17:24:02.113Z,100379.41
2022-12-31T17:26:32.983Z,100398.34
2022-12-31T17:29:05.115Z,100403.00
2022-12-31T17:31:36.779Z,100405.31
2022-12-31T17:34:22.375Z,100409.16
2022-12-31T17:37:03.603Z,100417.31
2022-12-31T17:39:45.480Z,100399.50
2022-12-31T17:42:14.800Z,100400.19
2022-12-31T17:44:45.015Z,100399.69
2022-12-31T17:47:17.306Z,100418.78
2022-12-31T17:49:46.757Z,100420.47
2022-12-31T17:52:16.343Z,100415.28
2022-12-31T17:54:44.427Z,100407.66
2022-12-31T17:57:25.270Z,100417.63
2022-12-31T17:59:53.494Z,100407.31
2022-12-31T18:02:22.811Z,100403.50
2022-12-31T18:04:50.882Z,100406.31
2022-12-31T18:07:18.793Z,100402.16
2022-12-31T18:09:46.788Z,100406.00
2022-12-31T18:12:16.256Z,100405.81
2022-12-31T18:14:46.494Z,100400.50
2022-12-31T18:17:16.515Z,100410.63
2022-12-31T18:20:04.059Z,100417.28
2022-12-31T18:22:33.181Z,100419.59
2022-12-31T18:25:01.789Z,100393.03
2022-12-31T18:27:30.597Z,100402.47
2022-12-31T18:30:04.249Z,100419.06
2022-12-31T18:32:34.449Z,100418.59
2022-12-31T18:35:04.147Z,100419.94
2022-12-31T18:37:35.667Z,100415.94
2022-12-31T18:40:03.694Z,100423.72
2022-12-31T18:42:31.648Z,100422.06
2022-12-31T18:44:59.709Z,100427.03
2022-12-31T18:47:31.344Z,100422.38
2022-12-31T18:50:04.005Z,100418.91
2022-12-31T18:52:31.901Z,100425.03
2022-12-31T18:55:02.634Z,100416.06
2022-12-31T18:57:30.595Z,100413.91
2022-12-31T18:59:58.651Z,100422.19
2022-12-31T19:02:26.647Z,100431.28
2022-12-31T19:04:54.589Z,100418.69
2022-12-31T19:07:23.837Z,100425.16
2022-12-31T19:09:58.098Z,100430.94
2022-12-31T19:12:26.496Z,100414.50
2022-12-31T19:14:54.543Z,100424.91
2022-12-31T19:17:22.480Z,100432.19
2022-12-31T19:19:50.418Z,100427.66
2022-12-31T19:22:18.299Z,100424.84
2022-12-31T19:24:47.615Z,100440.94
2022-12-31T19:27:16.925Z,100434.06
2022-12-31T19:29:44.813Z,100428.59
2022-12-31T19:32:13.003Z,100439.25
2022-12-31T19:34:41.061Z,100425.44
2022-12-31T19:37:12.210Z,100429.97
2022-12-31T19:39:40.288Z,100422.16
2022-12-31T19:42:15.739Z,100425.50
2022-12-31T19:44:43.772Z,100420.06
2022-12-31T19:47:13.894Z,100425.16
2022-12-31T19:49:41.906Z,100421.56
2022-12-31T19:52:10.036Z,100413.25
2022-12-31T19:54:38.060Z,100405.78
2022-12-31T19:57:06.072Z,100414.09
2022-12-31T19:59:35.483Z,100423.81
2022-12-31T20:02:04.984Z,100414.41
2022-12-31T20:04:33.005Z,100412.06
2022-12-31T20:07:01.123Z,100415.38
2022-12-31T20:09:29.193Z,100419.28
2022-12-31T20:11:57.339Z,100429.03
2022-12-31T20:14:25.344Z,100426.38
2022-12-31T20:16:55.959Z,100435.38
2022-12-31T20:19:23.991Z,100443.09
2022-12-31T20:21:52.072Z,100431.31
2022-12-31T20:24:20.005Z,100432.00
2022-12-31T20:26:50.208Z,100429.03
2022-12-31T20:29:18.447Z,100433.00
2022-12-31T20:31:46.558Z,100427.75
2022-12-31T20:34:16.142Z,100436.00
2022-12-31T20:36:44.146Z,100430.66
2022-12-31T20:39:12.307Z,100445.28
2022-12-31T20:41:40.323Z,100439.66
2022-12-31T20:44:08.599Z,100445.81
2022-12-31T20:46:37.013Z,100438.16
2022-12-31T20:49:06.177Z,100438.81
2022-12-31T20:51:36.029Z,100421.91
2022-12-31T20:54:06.964Z,100419.75
2022-12-31T20:56:41.442Z,100418.41
2022-12-31T20:59:14.063Z,100406.28
2022-12-31T21:02:19.501Z,100426.41
2022-12-31T21:04:30.901Z,100422.13
2022-12-31T21:07:01.782Z,100426.75
2022-12-31T21:09:29.902Z,100435.88
2022-12-31T21:12:15.171Z,100423.59
2022-12-31T21:14:44.978Z,100423.59
2022-12-31T21:17:13.266Z,100429.72
2022-12-31T21:19:41.515Z,100436.19
2022-12-31T21:22:11.483Z,100443.97
2022-12-31T21:24:40.061Z,100435.44
2022-12-31T21:27:08.447Z,100439.22
2022-12-31T21:29:55.719Z,100424.59
2022-12-31T21:32:25.670Z,100426.78
2022-12-31T21:35:23.030Z,100443.19
2022-12-31T21:37:58.628Z,100440.03
2022-12-31T21:40:28.552Z,100441.69
2022-12-31T21:42:59.490Z,100442.84
2022-12-31T21:45:27.789Z,100445.00
2022-12-31T21:48:17.035Z,100468.44
2022-12-31T21:50:45.982Z,100440.22
2022-12-31T21:53:20.197Z,100447.16
2022-12-31T21:56:11.568Z,100443.97
2022-12-31T21:58:41.687Z,100459.91
2022-12-31T22:01:33.651Z,100463.94
2022-12-31T22:04:02.058Z,100470.53
2022-12-31T22:06:30.403Z,100468.09
2022-12-31T22:08:59.834Z,100463.09
2022-12-31T22:11:29.424Z,100451.66
2022-12-31T22:13:57.573Z,100451.81
2022-12-31T22:16:25.827Z,100455.28
2022-12-31T22:18:56.752Z,100464.22
2022-12-31T22:21:26.504Z,100475.72
2022-12-31T22:23:56.313Z,100470.03
2022-12-31T22:26:28.299Z,100483.63
2022-12-31T22:28:59.431Z,100480.63
2022-12-31T22:31:30.841Z,100486.63
2022-12-31T22:33:59.943Z,100504.41
2022-12-31T22:36:28.155Z,100493.00
2022-12-31T22:38:58.414Z,100493.25
2022-12-31T22:41:29.291Z,100517.72
2022-12-31T22:44:03.648Z,100505.97
2022-12-31T22:46:33.704Z,100495.97
2022-12-31T22:49:05.178Z,100503.31
2022-12-31T22:51:55.696Z,100504.78
2022-12-31T22:54:21.636Z,100510.91
2022-12-31T22:56:53.481Z,100520.25
2022-12-31T22:59:21.608Z,100516.91
2022-12-31T23:01:49.879Z,100517.72
2022-12-31T23:04:18.110Z,100520.84
2022-12-31T23:06:46.463Z,100506.75
2022-12-31T23:09:33.867Z,100508.88
2022-12-31T23:12:04.647Z,100519.44
2022-12-31T23:14:50.273Z,100516.50
2022-12-31T23:17:37.637Z,100517.78
2022-12-31T23:20:25.329Z,100529.69
2022-12-31T23:23:11.922Z,100512.81
2022-12-31T23:25:42.691Z,100519.22
2022-12-31T23:28:13.966Z,100521.34
2022-12-31T23:30:43.590Z,100517.41
2022-12-31T23:33:15.807Z,100520.38
2022-12-31T23:35:45.781Z,100524.69
2022-12-31T23:38:16.535Z,100520.44
2022-12-31T23:40:44.714Z,100512.13
2022-12-31T23:43:21.405Z,100524.97
2022-12-31T23:45:49.825Z,100519.97
2022-12-31T23:48:18.289Z,100524.41
2022-12-31T23:50:53.015Z,100524.75
2022-12-31T23:53:22.816Z,100523.94
2022-12-31T23:55:51.032Z,100535.06
2022-12-31T23:58:20.991Z,100543.50
